Terminal Aerodrome Forecast
Issued by NWS Milwaukee/Sullivan, WI

Home | Current Version | Previous Version | Text Only | Print | Product List | Glossary On
Versions: 1 2 3 4 5 6 7 8 9 10 11 12 13 14 15 16 17 18 19 20 21 22 23 24 25 26 27 28 29 30 31 32 33 34 35 36 37 38 39 40 41 42 43 44
000
FTUS43 KMKX 062325
TAFMKE
TAF
KMKE 062325Z 0700/0806 22012KT P6SM BKN090
     FM070200 23007KT 6SM -SHRA BR VCTS SCT025 OVC050CB
     FM070700 28007KT 5SM BR SCT008 BKN025
      TEMPO 0707/0709 BKN008 OVC025
     FM070900 36011KT P6SM SCT008 OVC015
     FM071200 01013KT P6SM BKN035
     FM071600 02013KT P6SM SCT040
     FM080000 05009KT P6SM FEW250=

USA.gov is the U.S. government's official web portal to all federal, state and local government web resources and services.